sensor_id;sensor_type;location;lat;lon;timestamp;P1;durP1;ratioP1;P2;durP2;ratioP2
33154;SDS011;19511;42.682;23.332;2022-12-07T00:02:20;25.33;;;9.43;;
33154;SDS011;19511;42.682;23.332;2022-12-07T00:04:46;21.40;;;9.20;;
33154;SDS011;19511;42.682;23.332;2022-12-07T00:07:14;31.77;;;7.97;;
33154;SDS011;19511;42.682;23.332;2022-12-07T00:09:39;15.68;;;6.18;;
33154;SDS011;19511;42.682;23.332;2022-12-07T00:12:06;22.10;;;5.78;;
33154;SDS011;19511;42.682;23.332;2022-12-07T00:14:33;14.82;;;8.68;;
33154;SDS011;19511;42.682;23.332;2022-12-07T00:16:58;16.35;;;6.53;;
33154;SDS011;19511;42.682;23.332;2022-12-07T00:19:24;21.27;;;8.20;;
33154;SDS011;19511;42.682;23.332;2022-12-07T00:21:49;12.85;;;7.20;;
33154;SDS011;19511;42.682;23.332;2022-12-07T00:24:18;22.23;;;8.63;;
33154;SDS011;19511;42.682;23.332;2022-12-07T00:26:43;16.10;;;7.40;;
33154;SDS011;19511;42.682;23.332;2022-12-07T00:29:15;13.75;;;6.15;;
33154;SDS011;19511;42.682;23.332;2022-12-07T00:31:45;9.15;;;6.07;;
33154;SDS011;19511;42.682;23.332;2022-12-07T00:34:19;11.07;;;5.22;;
33154;SDS011;19511;42.682;23.332;2022-12-07T00:36:46;18.35;;;7.88;;
33154;SDS011;19511;42.682;23.332;2022-12-07T00:39:12;27.90;;;6.90;;
33154;SDS011;19511;42.682;23.332;2022-12-07T00:41:37;20.52;;;6.60;;
33154;SDS011;19511;42.682;23.332;2022-12-07T00:44:07;18.05;;;6.50;;
33154;SDS011;19511;42.682;23.332;2022-12-07T00:46:32;30.42;;;7.35;;
33154;SDS011;19511;42.682;23.332;2022-12-07T00:48:58;14.95;;;5.82;;
33154;SDS011;19511;42.682;23.332;2022-12-07T00:51:24;21.98;;;8.80;;
33154;SDS011;19511;42.682;23.332;2022-12-07T00:53:50;22.67;;;9.57;;
33154;SDS011;19511;42.682;23.332;2022-12-07T00:56:17;27.10;;;7.32;;
33154;SDS011;19511;42.682;23.332;2022-12-07T00:58:53;19.35;;;7.82;;
33154;SDS011;19511;42.682;23.332;2022-12-07T01:01:20;16.00;;;7.07;;
33154;SDS011;19511;42.682;23.332;2022-12-07T01:03:46;24.88;;;7.10;;
33154;SDS011;19511;42.682;23.332;2022-12-07T01:06:16;15.40;;;9.75;;
33154;SDS011;19511;42.682;23.332;2022-12-07T01:08:42;10.48;;;6.75;;
33154;SDS011;19511;42.682;23.332;2022-12-07T01:11:09;19.52;;;8.68;;
33154;SDS011;19511;42.682;23.332;2022-12-07T01:13:38;12.95;;;5.85;;
33154;SDS011;19511;42.682;23.332;2022-12-07T01:16:04;16.13;;;6.90;;
33154;SDS011;19511;42.682;23.332;2022-12-07T01:18:32;29.02;;;6.38;;
33154;SDS011;19511;42.682;23.332;2022-12-07T01:21:03;20.48;;;8.18;;
33154;SDS011;19511;42.682;23.332;2022-12-07T01:23:36;9.25;;;6.15;;
33154;SDS011;19511;42.682;23.332;2022-12-07T01:26:04;17.70;;;5.78;;
33154;SDS011;19511;42.682;23.332;2022-12-07T01:28:31;13.73;;;5.88;;
33154;SDS011;19511;42.682;23.332;2022-12-07T01:30:58;14.65;;;7.35;;
33154;SDS011;19511;42.682;23.332;2022-12-07T01:33:30;16.23;;;6.68;;
33154;SDS011;19511;42.682;23.332;2022-12-07T01:36:05;21.20;;;6.78;;
33154;SDS011;19511;42.682;23.332;2022-12-07T01:38:39;11.65;;;6.60;;
33154;SDS011;19511;42.682;23.332;2022-12-07T01:41:05;21.15;;;6.95;;
33154;SDS011;19511;42.682;23.332;2022-12-07T01:43:31;15.65;;;8.07;;
33154;SDS011;19511;42.682;23.332;2022-12-07T01:45:58;27.58;;;7.00;;
33154;SDS011;19511;42.682;23.332;2022-12-07T01:48:27;20.20;;;8.43;;
33154;SDS011;19511;42.682;23.332;2022-12-07T01:50:57;25.63;;;7.32;;
33154;SDS011;19511;42.682;23.332;2022-12-07T01:53:29;13.10;;;5.53;;
33154;SDS011;19511;42.682;23.332;2022-12-07T01:55:57;17.63;;;6.55;;
33154;SDS011;19511;42.682;23.332;2022-12-07T01:58:24;17.73;;;6.43;;
33154;SDS011;19511;42.682;23.332;2022-12-07T02:00:50;17.08;;;8.07;;
33154;SDS011;19511;42.682;23.332;2022-12-07T02:03:19;21.70;;;9.45;;
33154;SDS011;19511;42.682;23.332;2022-12-07T02:05:49;13.18;;;6.95;;
33154;SDS011;19511;42.682;23.332;2022-12-07T02:08:16;15.43;;;7.03;;
33154;SDS011;19511;42.682;23.332;2022-12-07T02:10:42;18.65;;;5.60;;
33154;SDS011;19511;42.682;23.332;2022-12-07T02:13:10;15.77;;;7.00;;
33154;SDS011;19511;42.682;23.332;2022-12-07T02:15:48;19.08;;;7.15;;
33154;SDS011;19511;42.682;23.332;2022-12-07T02:30:19;17.88;;;7.57;;
33154;SDS011;19511;42.682;23.332;2022-12-07T02:38:30;11.88;;;6.68;;
33154;SDS011;19511;42.682;23.332;2022-12-07T02:41:04;21.58;;;7.97;;
33154;SDS011;19511;42.682;23.332;2022-12-07T02:43:42;16.67;;;8.60;;
33154;SDS011;19511;42.682;23.332;2022-12-07T02:46:15;12.85;;;7.45;;
33154;SDS011;19511;42.682;23.332;2022-12-07T02:48:45;13.45;;;5.82;;
33154;SDS011;19511;42.682;23.332;2022-12-07T02:51:12;19.30;;;9.25;;
33154;SDS011;19511;42.682;23.332;2022-12-07T02:53:42;14.18;;;8.75;;
33154;SDS011;19511;42.682;23.332;2022-12-07T02:56:18;21.27;;;7.75;;
33154;SDS011;19511;42.682;23.332;2022-12-07T02:59:05;14.65;;;8.13;;
33154;SDS011;19511;42.682;23.332;2022-12-07T03:07:03;11.48;;;7.28;;
33154;SDS011;19511;42.682;23.332;2022-12-07T03:09:37;16.92;;;7.28;;
33154;SDS011;19511;42.682;23.332;2022-12-07T03:12:16;14.75;;;8.30;;
33154;SDS011;19511;42.682;23.332;2022-12-07T03:14:48;13.43;;;5.95;;
33154;SDS011;19511;42.682;23.332;2022-12-07T03:17:22;23.48;;;8.27;;
33154;SDS011;19511;42.682;23.332;2022-12-07T03:19:52;12.50;;;7.03;;
33154;SDS011;19511;42.682;23.332;2022-12-07T03:22:23;24.70;;;9.15;;
33154;SDS011;19511;42.682;23.332;2022-12-07T03:24:58;14.30;;;8.55;;
33154;SDS011;19511;42.682;23.332;2022-12-07T03:27:30;25.73;;;9.63;;
33154;SDS011;19511;42.682;23.332;2022-12-07T03:30:00;21.58;;;7.35;;
33154;SDS011;19511;42.682;23.332;2022-12-07T03:35:03;21.40;;;8.02;;
33154;SDS011;19511;42.682;23.332;2022-12-07T03:37:38;12.65;;;5.82;;
33154;SDS011;19511;42.682;23.332;2022-12-07T03:40:11;19.00;;;9.75;;
33154;SDS011;19511;42.682;23.332;2022-12-07T03:42:42;12.13;;;8.15;;
33154;SDS011;19511;42.682;23.332;2022-12-07T03:45:08;30.65;;;9.00;;
33154;SDS011;19511;42.682;23.332;2022-12-07T03:47:48;14.85;;;6.50;;
33154;SDS011;19511;42.682;23.332;2022-12-07T03:50:28;13.23;;;7.07;;
33154;SDS011;19511;42.682;23.332;2022-12-07T03:53:05;19.75;;;7.13;;
33154;SDS011;19511;42.682;23.332;2022-12-07T03:55:39;19.10;;;8.65;;
33154;SDS011;19511;42.682;23.332;2022-12-07T03:58:10;17.45;;;7.72;;
33154;SDS011;19511;42.682;23.332;2022-12-07T04:00:40;17.88;;;6.25;;
33154;SDS011;19511;42.682;23.332;2022-12-07T04:03:06;30.50;;;11.95;;
33154;SDS011;19511;42.682;23.332;2022-12-07T04:05:32;20.75;;;8.73;;
33154;SDS011;19511;42.682;23.332;2022-12-07T04:07:57;14.23;;;9.05;;
33154;SDS011;19511;42.682;23.332;2022-12-07T04:10:23;13.40;;;7.30;;
33154;SDS011;19511;42.682;23.332;2022-12-07T04:12:48;17.40;;;8.30;;
33154;SDS011;19511;42.682;23.332;2022-12-07T04:15:13;18.60;;;9.57;;
33154;SDS011;19511;42.682;23.332;2022-12-07T04:17:39;33.53;;;7.78;;
33154;SDS011;19511;42.682;23.332;2022-12-07T04:20:05;16.80;;;5.78;;
33154;SDS011;19511;42.682;23.332;2022-12-07T04:22:32;20.65;;;8.05;;
33154;SDS011;19511;42.682;23.332;2022-12-07T04:24:57;32.58;;;7.15;;
33154;SDS011;19511;42.682;23.332;2022-12-07T04:27:23;15.75;;;8.30;;
33154;SDS011;19511;42.682;23.332;2022-12-07T04:29:48;18.20;;;6.43;;
33154;SDS011;19511;42.682;23.332;2022-12-07T04:32:14;30.25;;;7.53;;
33154;SDS011;19511;42.682;23.332;2022-12-07T04:34:39;18.63;;;8.48;;
33154;SDS011;19511;42.682;23.332;2022-12-07T04:37:05;15.50;;;6.75;;
33154;SDS011;19511;42.682;23.332;2022-12-07T04:39:31;15.15;;;6.72;;
33154;SDS011;19511;42.682;23.332;2022-12-07T04:41:58;24.63;;;7.57;;
33154;SDS011;19511;42.682;23.332;2022-12-07T04:44:24;20.20;;;8.07;;
33154;SDS011;19511;42.682;23.332;2022-12-07T04:46:51;18.25;;;7.53;;
33154;SDS011;19511;42.682;23.332;2022-12-07T04:49:17;24.13;;;11.15;;
33154;SDS011;19511;42.682;23.332;2022-12-07T04:51:43;23.55;;;6.90;;
33154;SDS011;19511;42.682;23.332;2022-12-07T04:54:09;27.08;;;7.88;;
33154;SDS011;19511;42.682;23.332;2022-12-07T04:56:35;13.15;;;7.60;;
33154;SDS011;19511;42.682;23.332;2022-12-07T04:59:01;12.88;;;6.57;;
33154;SDS011;19511;42.682;23.332;2022-12-07T05:01:28;19.70;;;5.85;;
33154;SDS011;19511;42.682;23.332;2022-12-07T05:03:53;26.00;;;9.98;;
33154;SDS011;19511;42.682;23.332;2022-12-07T05:06:19;16.73;;;8.27;;
33154;SDS011;19511;42.682;23.332;2022-12-07T05:08:44;14.75;;;8.18;;
33154;SDS011;19511;42.682;23.332;2022-12-07T05:11:10;21.83;;;7.25;;
33154;SDS011;19511;42.682;23.332;2022-12-07T05:13:57;32.78;;;8.07;;
33154;SDS011;19511;42.682;23.332;2022-12-07T05:16:23;19.20;;;8.18;;
33154;SDS011;19511;42.682;23.332;2022-12-07T05:18:48;23.25;;;8.73;;
33154;SDS011;19511;42.682;23.332;2022-12-07T05:21:14;19.42;;;8.27;;
33154;SDS011;19511;42.682;23.332;2022-12-07T05:23:39;20.55;;;11.38;;
33154;SDS011;19511;42.682;23.332;2022-12-07T05:26:05;17.02;;;8.02;;
33154;SDS011;19511;42.682;23.332;2022-12-07T05:28:30;24.35;;;7.82;;
33154;SDS011;19511;42.682;23.332;2022-12-07T05:30:55;20.13;;;8.90;;
33154;SDS011;19511;42.682;23.332;2022-12-07T05:33:21;10.30;;;6.00;;
33154;SDS011;19511;42.682;23.332;2022-12-07T05:35:46;19.45;;;7.13;;
33154;SDS011;19511;42.682;23.332;2022-12-07T05:38:13;15.65;;;7.40;;
33154;SDS011;19511;42.682;23.332;2022-12-07T05:40:38;19.85;;;7.93;;
33154;SDS011;19511;42.682;23.332;2022-12-07T05:43:04;15.05;;;8.52;;
33154;SDS011;19511;42.682;23.332;2022-12-07T05:45:29;25.63;;;8.30;;
33154;SDS011;19511;42.682;23.332;2022-12-07T05:47:55;23.33;;;7.72;;
33154;SDS011;19511;42.682;23.332;2022-12-07T05:50:20;15.77;;;6.85;;
33154;SDS011;19511;42.682;23.332;2022-12-07T05:52:46;18.27;;;7.78;;
33154;SDS011;19511;42.682;23.332;2022-12-07T05:55:11;15.60;;;7.80;;
33154;SDS011;19511;42.682;23.332;2022-12-07T05:57:36;16.98;;;8.27;;
33154;SDS011;19511;42.682;23.332;2022-12-07T06:00:03;30.55;;;9.40;;
33154;SDS011;19511;42.682;23.332;2022-12-07T06:02:29;12.43;;;5.28;;
33154;SDS011;19511;42.682;23.332;2022-12-07T06:04:55;18.23;;;8.75;;
33154;SDS011;19511;42.682;23.332;2022-12-07T06:07:20;23.70;;;9.82;;
33154;SDS011;19511;42.682;23.332;2022-12-07T06:09:46;25.45;;;7.72;;
33154;SDS011;19511;42.682;23.332;2022-12-07T06:12:12;32.63;;;11.45;;
33154;SDS011;19511;42.682;23.332;2022-12-07T06:14:58;15.18;;;7.43;;
33154;SDS011;19511;42.682;23.332;2022-12-07T06:17:24;10.88;;;7.50;;
33154;SDS011;19511;42.682;23.332;2022-12-07T06:19:49;18.67;;;7.70;;
33154;SDS011;19511;42.682;23.332;2022-12-07T06:22:15;23.48;;;8.25;;
33154;SDS011;19511;42.682;23.332;2022-12-07T06:24:41;15.07;;;6.75;;
33154;SDS011;19511;42.682;23.332;2022-12-07T06:27:06;20.40;;;7.13;;
33154;SDS011;19511;42.682;23.332;2022-12-07T06:29:32;18.58;;;8.35;;
33154;SDS011;19511;42.682;23.332;2022-12-07T06:31:58;27.83;;;9.55;;
33154;SDS011;19511;42.682;23.332;2022-12-07T06:34:23;17.30;;;8.63;;
33154;SDS011;19511;42.682;23.332;2022-12-07T06:36:50;36.75;;;10.63;;
33154;SDS011;19511;42.682;23.332;2022-12-07T06:39:18;26.73;;;8.52;;
33154;SDS011;19511;42.682;23.332;2022-12-07T06:41:45;30.60;;;11.60;;
33154;SDS011;19511;42.682;23.332;2022-12-07T06:44:10;22.52;;;9.25;;
33154;SDS011;19511;42.682;23.332;2022-12-07T06:46:36;18.77;;;7.72;;
33154;SDS011;19511;42.682;23.332;2022-12-07T06:49:01;29.95;;;7.85;;
33154;SDS011;19511;42.682;23.332;2022-12-07T06:51:27;27.98;;;10.57;;
33154;SDS011;19511;42.682;23.332;2022-12-07T06:53:53;21.20;;;8.30;;
33154;SDS011;19511;42.682;23.332;2022-12-07T06:56:18;25.98;;;8.43;;
33154;SDS011;19511;42.682;23.332;2022-12-07T06:58:48;21.25;;;8.82;;
33154;SDS011;19511;42.682;23.332;2022-12-07T07:01:14;15.73;;;7.70;;
33154;SDS011;19511;42.682;23.332;2022-12-07T07:03:43;20.48;;;9.77;;
33154;SDS011;19511;42.682;23.332;2022-12-07T07:06:10;31.25;;;9.63;;
33154;SDS011;19511;42.682;23.332;2022-12-07T07:08:36;18.98;;;8.07;;
33154;SDS011;19511;42.682;23.332;2022-12-07T07:11:02;22.30;;;9.55;;
33154;SDS011;19511;42.682;23.332;2022-12-07T07:13:28;14.90;;;9.13;;
33154;SDS011;19511;42.682;23.332;2022-12-07T07:15:54;17.42;;;8.43;;
33154;SDS011;19511;42.682;23.332;2022-12-07T07:18:20;20.23;;;7.63;;
33154;SDS011;19511;42.682;23.332;2022-12-07T07:20:46;19.20;;;7.07;;
33154;SDS011;19511;42.682;23.332;2022-12-07T07:23:11;15.60;;;7.50;;
33154;SDS011;19511;42.682;23.332;2022-12-07T07:25:37;29.10;;;8.77;;
33154;SDS011;19511;42.682;23.332;2022-12-07T07:28:02;37.22;;;10.35;;
33154;SDS011;19511;42.682;23.332;2022-12-07T07:30:28;24.80;;;8.20;;
33154;SDS011;19511;42.682;23.332;2022-12-07T07:32:57;17.25;;;6.60;;
33154;SDS011;19511;42.682;23.332;2022-12-07T07:35:27;19.10;;;6.68;;
33154;SDS011;19511;42.682;23.332;2022-12-07T07:37:55;25.17;;;7.20;;
33154;SDS011;19511;42.682;23.332;2022-12-07T07:40:20;19.25;;;7.78;;
33154;SDS011;19511;42.682;23.332;2022-12-07T07:42:46;31.35;;;8.75;;
33154;SDS011;19511;42.682;23.332;2022-12-07T07:45:19;26.83;;;7.77;;
33154;SDS011;19511;42.682;23.332;2022-12-07T07:47:45;27.55;;;8.95;;
33154;SDS011;19511;42.682;23.332;2022-12-07T07:50:10;26.45;;;10.07;;
33154;SDS011;19511;42.682;23.332;2022-12-07T07:52:36;15.57;;;7.47;;
33154;SDS011;19511;42.682;23.332;2022-12-07T07:55:02;15.13;;;8.88;;
33154;SDS011;19511;42.682;23.332;2022-12-07T07:57:27;14.75;;;8.05;;
33154;SDS011;19511;42.682;23.332;2022-12-07T07:59:53;28.20;;;9.77;;
33154;SDS011;19511;42.682;23.332;2022-12-07T08:02:19;19.40;;;8.93;;
33154;SDS011;19511;42.682;23.332;2022-12-07T08:04:45;18.33;;;11.18;;
33154;SDS011;19511;42.682;23.332;2022-12-07T08:07:13;22.50;;;9.43;;
33154;SDS011;19511;42.682;23.332;2022-12-07T08:09:39;21.00;;;8.85;;
33154;SDS011;19511;42.682;23.332;2022-12-07T08:12:05;21.92;;;9.75;;
33154;SDS011;19511;42.682;23.332;2022-12-07T08:14:31;20.33;;;9.45;;
33154;SDS011;19511;42.682;23.332;2022-12-07T08:16:56;20.13;;;9.95;;
33154;SDS011;19511;42.682;23.332;2022-12-07T08:19:22;25.90;;;12.02;;
33154;SDS011;19511;42.682;23.332;2022-12-07T08:21:48;28.02;;;11.00;;
33154;SDS011;19511;42.682;23.332;2022-12-07T08:24:13;28.30;;;11.57;;
33154;SDS011;19511;42.682;23.332;2022-12-07T08:26:39;20.40;;;10.15;;
33154;SDS011;19511;42.682;23.332;2022-12-07T08:29:05;21.30;;;10.32;;
33154;SDS011;19511;42.682;23.332;2022-12-07T08:31:30;20.17;;;11.32;;
33154;SDS011;19511;42.682;23.332;2022-12-07T08:33:56;23.35;;;11.18;;
33154;SDS011;19511;42.682;23.332;2022-12-07T08:36:22;26.25;;;14.10;;
33154;SDS011;19511;42.682;23.332;2022-12-07T08:38:48;26.55;;;13.40;;
33154;SDS011;19511;42.682;23.332;2022-12-07T08:41:14;22.38;;;10.27;;
33154;SDS011;19511;42.682;23.332;2022-12-07T08:43:40;42.97;;;15.45;;
33154;SDS011;19511;42.682;23.332;2022-12-07T08:46:08;33.15;;;14.75;;
33154;SDS011;19511;42.682;23.332;2022-12-07T08:48:35;26.67;;;15.73;;
33154;SDS011;19511;42.682;23.332;2022-12-07T08:51:04;27.35;;;12.18;;
33154;SDS011;19511;42.682;23.332;2022-12-07T08:53:30;25.23;;;11.20;;
33154;SDS011;19511;42.682;23.332;2022-12-07T08:55:56;23.23;;;16.05;;
33154;SDS011;19511;42.682;23.332;2022-12-07T08:58:23;28.33;;;13.23;;
33154;SDS011;19511;42.682;23.332;2022-12-07T09:00:48;31.17;;;13.30;;
33154;SDS011;19511;42.682;23.332;2022-12-07T09:03:14;30.38;;;13.88;;
33154;SDS011;19511;42.682;23.332;2022-12-07T09:05:39;26.30;;;12.95;;
33154;SDS011;19511;42.682;23.332;2022-12-07T09:08:05;26.65;;;9.82;;
33154;SDS011;19511;42.682;23.332;2022-12-07T09:10:31;16.55;;;9.43;;
33154;SDS011;19511;42.682;23.332;2022-12-07T09:13:00;24.60;;;11.02;;
33154;SDS011;19511;42.682;23.332;2022-12-07T09:15:26;21.40;;;11.20;;
33154;SDS011;19511;42.682;23.332;2022-12-07T10:02:42;33.95;;;25.05;;
33154;SDS011;19511;42.682;23.332;2022-12-07T10:05:13;46.50;;;19.27;;
33154;SDS011;19511;42.682;23.332;2022-12-07T10:07:44;37.63;;;24.02;;
33154;SDS011;19511;42.682;23.332;2022-12-07T10:10:22;35.53;;;26.70;;
33154;SDS011;19511;42.682;23.332;2022-12-07T10:12:54;58.75;;;52.63;;
33154;SDS011;19511;42.682;23.332;2022-12-07T10:15:22;42.30;;;37.08;;
33154;SDS011;19511;42.682;23.332;2022-12-07T10:17:48;53.97;;;48.38;;
33154;SDS011;19511;42.682;23.332;2022-12-07T10:20:24;55.70;;;45.05;;
33154;SDS011;19511;42.682;23.332;2022-12-07T10:23:03;44.80;;;39.78;;
33154;SDS011;19511;42.682;23.332;2022-12-07T10:25:33;271.02;;;249.90;;
33154;SDS011;19511;42.682;23.332;2022-12-07T10:28:02;418.38;;;387.42;;
33154;SDS011;19511;42.682;23.332;2022-12-07T10:33:30;344.58;;;319.27;;
33154;SDS011;19511;42.682;23.332;2022-12-07T10:36:20;554.67;;;507.92;;
33154;SDS011;19511;42.682;23.332;2022-12-07T10:38:47;476.88;;;440.15;;
33154;SDS011;19511;42.682;23.332;2022-12-07T10:41:15;471.77;;;434.80;;
33154;SDS011;19511;42.682;23.332;2022-12-07T10:43:48;468.52;;;433.55;;
33154;SDS011;19511;42.682;23.332;2022-12-07T10:46:34;561.65;;;518.75;;
33154;SDS011;19511;42.682;23.332;2022-12-07T10:55:16;701.47;;;645.75;;
33154;SDS011;19511;42.682;23.332;2022-12-07T11:00:24;861.83;;;785.63;;
33154;SDS011;19511;42.682;23.332;2022-12-07T11:03:07;892.65;;;812.20;;
33154;SDS011;19511;42.682;23.332;2022-12-07T11:17:15;960.88;;;871.78;;
33154;SDS011;19511;42.682;23.332;2022-12-07T11:37:12;792.47;;;725.35;;
33154;SDS011;19511;42.682;23.332;2022-12-07T11:39:44;985.80;;;891.22;;
33154;SDS011;19511;42.682;23.332;2022-12-07T11:42:14;1078.80;;;965.08;;
33154;SDS011;19511;42.682;23.332;2022-12-07T11:45:20;1074.95;;;962.92;;
33154;SDS011;19511;42.682;23.332;2022-12-07T11:53:04;1107.18;;;985.95;;
33154;SDS011;19511;42.682;23.332;2022-12-07T11:55:45;1225.68;;;996.47;;
33154;SDS011;19511;42.682;23.332;2022-12-07T11:58:30;1120.68;;;994.88;;
33154;SDS011;19511;42.682;23.332;2022-12-07T12:03:56;1191.35;;;995.63;;
33154;SDS011;19511;42.682;23.332;2022-12-07T12:06:29;1114.05;;;992.25;;
33154;SDS011;19511;42.682;23.332;2022-12-07T12:09:48;1184.50;;;999.90;;
33154;SDS011;19511;42.682;23.332;2022-12-07T12:20:20;1144.35;;;999.90;;
33154;SDS011;19511;42.682;23.332;2022-12-07T12:25:29;1142.45;;;993.90;;
33154;SDS011;19511;42.682;23.332;2022-12-07T12:28:02;1229.85;;;999.90;;
33154;SDS011;19511;42.682;23.332;2022-12-07T12:33:05;1216.85;;;999.90;;
33154;SDS011;19511;42.682;23.332;2022-12-07T12:35:39;1143.05;;;997.40;;
33154;SDS011;19511;42.682;23.332;2022-12-07T12:38:26;1137.93;;;999.85;;
33154;SDS011;19511;42.682;23.332;2022-12-07T12:40:58;1652.30;;;999.90;;
33154;SDS011;19511;42.682;23.332;2022-12-07T12:51:46;1487.53;;;948.08;;
33154;SDS011;19511;42.682;23.332;2022-12-07T12:54:20;1646.97;;;999.90;;
33154;SDS011;19511;42.682;23.332;2022-12-07T12:59:24;1653.00;;;999.90;;
33154;SDS011;19511;42.682;23.332;2022-12-07T13:01:54;1524.80;;;999.90;;
33154;SDS011;19511;42.682;23.332;2022-12-07T13:06:52;1656.80;;;999.90;;
33154;SDS011;19511;42.682;23.332;2022-12-07T13:09:23;1576.65;;;999.90;;
33154;SDS011;19511;42.682;23.332;2022-12-07T13:11:56;1643.88;;;999.90;;
33154;SDS011;19511;42.682;23.332;2022-12-07T13:14:42;1498.93;;;758.58;;
33154;SDS011;19511;42.682;23.332;2022-12-07T13:20:00;1468.30;;;999.67;;
33154;SDS011;19511;42.682;23.332;2022-12-07T13:28:07;1509.22;;;999.90;;
33154;SDS011;19511;42.682;23.332;2022-12-07T13:30:38;1516.18;;;999.90;;
33154;SDS011;19511;42.682;23.332;2022-12-07T13:33:15;1585.03;;;999.90;;
33154;SDS011;19511;42.682;23.332;2022-12-07T13:35:43;1607.28;;;999.90;;
33154;SDS011;19511;42.682;23.332;2022-12-07T13:38:18;1623.75;;;999.90;;
33154;SDS011;19511;42.682;23.332;2022-12-07T13:40:59;1649.35;;;998.50;;
33154;SDS011;19511;42.682;23.332;2022-12-07T13:43:29;1568.70;;;970.17;;
33154;SDS011;19511;42.682;23.332;2022-12-07T13:45:57;1623.47;;;999.90;;
33154;SDS011;19511;42.682;23.332;2022-12-07T13:48:35;1572.00;;;999.90;;
33154;SDS011;19511;42.682;23.332;2022-12-07T13:51:14;1605.35;;;999.90;;
33154;SDS011;19511;42.682;23.332;2022-12-07T13:53:47;1607.80;;;999.90;;
33154;SDS011;19511;42.682;23.332;2022-12-07T13:56:15;1627.15;;;996.53;;
33154;SDS011;19511;42.682;23.332;2022-12-07T13:58:41;1603.45;;;999.90;;
33154;SDS011;19511;42.682;23.332;2022-12-07T14:01:06;1625.18;;;999.90;;
33154;SDS011;19511;42.682;23.332;2022-12-07T14:03:33;1629.78;;;999.90;;
33154;SDS011;19511;42.682;23.332;2022-12-07T14:08:41;1620.85;;;999.90;;
33154;SDS011;19511;42.682;23.332;2022-12-07T14:11:09;1712.28;;;999.90;;
33154;SDS011;19511;42.682;23.332;2022-12-07T14:13:44;1534.38;;;912.92;;
33154;SDS011;19511;42.682;23.332;2022-12-07T14:16:28;1430.97;;;850.85;;
33154;SDS011;19511;42.682;23.332;2022-12-07T14:19:05;950.33;;;479.83;;
33154;SDS011;19511;42.682;23.332;2022-12-07T14:22:05;1360.38;;;680.83;;
33154;SDS011;19511;42.682;23.332;2022-12-07T14:24:33;748.67;;;386.20;;
33154;SDS011;19511;42.682;23.332;2022-12-07T14:27:15;1392.05;;;706.45;;
33154;SDS011;19511;42.682;23.332;2022-12-07T14:29:43;516.58;;;262.67;;
33154;SDS011;19511;42.682;23.332;2022-12-07T14:34:58;786.13;;;383.75;;
33154;SDS011;19511;42.682;23.332;2022-12-07T14:37:33;667.17;;;369.27;;
33154;SDS011;19511;42.682;23.332;2022-12-07T14:39:58;1025.75;;;569.78;;
33154;SDS011;19511;42.682;23.332;2022-12-07T14:42:26;983.38;;;505.45;;
33154;SDS011;19511;42.682;23.332;2022-12-07T14:44:56;941.30;;;547.90;;
33154;SDS011;19511;42.682;23.332;2022-12-07T14:47:22;1130.40;;;639.53;;
33154;SDS011;19511;42.682;23.332;2022-12-07T14:49:48;1305.72;;;719.13;;
33154;SDS011;19511;42.682;23.332;2022-12-07T14:52:24;1280.38;;;752.13;;
33154;SDS011;19511;42.682;23.332;2022-12-07T14:54:55;1341.47;;;756.92;;
33154;SDS011;19511;42.682;23.332;2022-12-07T14:57:20;1566.82;;;947.13;;
33154;SDS011;19511;42.682;23.332;2022-12-07T14:59:46;1480.68;;;999.90;;
33154;SDS011;19511;42.682;23.332;2022-12-07T15:02:12;1399.95;;;999.90;;
33154;SDS011;19511;42.682;23.332;2022-12-07T15:04:39;1409.97;;;999.90;;
33154;SDS011;19511;42.682;23.332;2022-12-07T15:07:06;1374.18;;;999.90;;
33154;SDS011;19511;42.682;23.332;2022-12-07T15:09:37;1335.40;;;999.90;;
33154;SDS011;19511;42.682;23.332;2022-12-07T15:12:03;1113.82;;;954.05;;
33154;SDS011;19511;42.682;23.332;2022-12-07T15:14:29;1204.47;;;975.90;;
33154;SDS011;19511;42.682;23.332;2022-12-07T15:16:54;1142.10;;;977.92;;
33154;SDS011;19511;42.682;23.332;2022-12-07T15:19:20;1112.15;;;968.20;;
33154;SDS011;19511;42.682;23.332;2022-12-07T15:21:48;1000.13;;;892.80;;
33154;SDS011;19511;42.682;23.332;2022-12-07T15:24:14;946.50;;;854.15;;
33154;SDS011;19511;42.682;23.332;2022-12-07T15:26:40;943.50;;;851.67;;
33154;SDS011;19511;42.682;23.332;2022-12-07T15:29:06;911.13;;;824.47;;
33154;SDS011;19511;42.682;23.332;2022-12-07T15:31:32;922.42;;;832.08;;
33154;SDS011;19511;42.682;23.332;2022-12-07T15:33:58;871.83;;;792.20;;
33154;SDS011;19511;42.682;23.332;2022-12-07T15:36:25;766.90;;;700.05;;
33154;SDS011;19511;42.682;23.332;2022-12-07T15:38:52;662.33;;;604.47;;
33154;SDS011;19511;42.682;23.332;2022-12-07T15:41:18;593.53;;;544.92;;
33154;SDS011;19511;42.682;23.332;2022-12-07T15:43:44;575.67;;;529.80;;
33154;SDS011;19511;42.682;23.332;2022-12-07T15:46:34;537.60;;;496.02;;
33154;SDS011;19511;42.682;23.332;2022-12-07T15:49:06;421.85;;;387.55;;
33154;SDS011;19511;42.682;23.332;2022-12-07T15:51:35;348.15;;;322.38;;
33154;SDS011;19511;42.682;23.332;2022-12-07T15:54:01;355.00;;;328.33;;
33154;SDS011;19511;42.682;23.332;2022-12-07T15:56:26;377.25;;;349.67;;
33154;SDS011;19511;42.682;23.332;2022-12-07T15:58:52;338.13;;;312.90;;
33154;SDS011;19511;42.682;23.332;2022-12-07T16:01:18;449.73;;;416.15;;
33154;SDS011;19511;42.682;23.332;2022-12-07T16:03:44;490.20;;;452.30;;
33154;SDS011;19511;42.682;23.332;2022-12-07T16:06:10;468.92;;;432.67;;
33154;SDS011;19511;42.682;23.332;2022-12-07T16:08:37;458.40;;;422.88;;
33154;SDS011;19511;42.682;23.332;2022-12-07T16:11:07;377.60;;;348.60;;
33154;SDS011;19511;42.682;23.332;2022-12-07T16:13:32;342.52;;;316.92;;
33154;SDS011;19511;42.682;23.332;2022-12-07T16:16:01;302.08;;;280.17;;
33154;SDS011;19511;42.682;23.332;2022-12-07T16:18:32;307.20;;;283.45;;
33154;SDS011;19511;42.682;23.332;2022-12-07T16:20:58;287.75;;;266.65;;
33154;SDS011;19511;42.682;23.332;2022-12-07T16:23:23;170.88;;;157.77;;
33154;SDS011;19511;42.682;23.332;2022-12-07T16:25:49;123.80;;;112.57;;
33154;SDS011;19511;42.682;23.332;2022-12-07T16:28:14;85.10;;;77.55;;
33154;SDS011;19511;42.682;23.332;2022-12-07T16:30:40;100.45;;;91.72;;
33154;SDS011;19511;42.682;23.332;2022-12-07T16:33:05;92.43;;;83.47;;
33154;SDS011;19511;42.682;23.332;2022-12-07T16:35:31;66.45;;;61.03;;
33154;SDS011;19511;42.682;23.332;2022-12-07T16:37:56;76.03;;;69.65;;
33154;SDS011;19511;42.682;23.332;2022-12-07T16:40:21;56.63;;;50.63;;
33154;SDS011;19511;42.682;23.332;2022-12-07T16:42:47;45.67;;;36.55;;
33154;SDS011;19511;42.682;23.332;2022-12-07T16:45:12;50.38;;;35.92;;
33154;SDS011;19511;42.682;23.332;2022-12-07T16:47:38;32.80;;;27.25;;
33154;SDS011;19511;42.682;23.332;2022-12-07T16:50:04;40.00;;;31.38;;
33154;SDS011;19511;42.682;23.332;2022-12-07T16:52:30;52.15;;;46.47;;
33154;SDS011;19511;42.682;23.332;2022-12-07T16:54:56;45.00;;;40.25;;
33154;SDS011;19511;42.682;23.332;2022-12-07T16:57:21;54.67;;;45.60;;